Time;durP1;ratioP1;P1;durP2;ratioP2;P2;SDS_P1;SDS_P2;PMS_P1;PMS_P2;Temp;Humidity;BMP_temperature;BMP_pressure;BME280_temperature;BME280_humidity;BME280_pressure;Samples;Min_cycle;Max_cycle;Signal;HPM_P1;HPM_P2
2021/08/09 00:01:20;;;;;;;;;1.67;1.33;;;;;18.92;55.58;101294.13;5063588;28;45252;-86
2021/08/09 00:03:46;;;;;;;;;1.67;0.67;;;;;18.84;55.24;101290.66;5062368;28;45367;-86
2021/08/09 00:06:11;;;;;;;;;0.67;0.67;;;;;18.83;55.34;101307.50;5061625;28;46365;-88
2021/08/09 00:08:36;;;;;;;;;0.67;0.67;;;;;18.78;55.36;101290.69;5062781;28;45240;-87
2021/08/09 00:11:02;;;;;;;;;0.33;0.00;;;;;18.68;55.50;101276.53;5062119;28;45243;-88
2021/08/09 00:13:27;;;;;;;;;1.67;0.67;;;;;18.75;55.56;101283.59;5062350;28;45407;-88
2021/08/09 00:15:53;;;;;;;;;0.33;0.33;;;;;18.72;55.63;101281.84;5060021;28;47977;-87
2021/08/09 00:18:18;;;;;;;;;0.67;0.00;;;;;18.71;55.48;101271.22;5059213;28;45666;-87
2021/08/09 00:20:44;;;;;;;;;1.00;0.00;;;;;18.72;55.16;101273.84;5057507;28;45332;-88
2021/08/09 00:23:09;;;;;;;;;1.33;1.00;;;;;18.67;55.14;101265.03;5057692;28;45815;-88
2021/08/09 00:25:34;;;;;;;;;1.33;1.00;;;;;18.69;55.51;101268.56;5057894;28;45367;-87
2021/08/09 00:28:00;;;;;;;;;2.33;0.67;;;;;18.61;55.51;101257.09;5057175;28;45315;-87
2021/08/09 00:30:25;;;;;;;;;1.33;1.00;;;;;18.67;55.35;101278.34;5058930;28;45441;-88
2021/08/09 00:32:51;;;;;;;;;1.67;1.00;;;;;18.69;55.73;101283.66;5058578;28;45296;-88
2021/08/09 00:35:16;;;;;;;;;1.00;0.67;;;;;18.68;55.33;101273.88;5061328;28;45476;-85
2021/08/09 00:37:42;;;;;;;;;1.67;0.67;;;;;18.69;55.66;101286.31;5062156;28;45364;-86
2021/08/09 00:40:08;;;;;;;;;0.33;0.00;;;;;18.67;55.79;101280.13;5061619;28;45415;-87
2021/08/09 00:42:33;;;;;;;;;2.33;0.67;;;;;18.66;55.88;101278.34;5062640;28;45461;-86
2021/08/09 00:44:59;;;;;;;;;2.33;0.67;;;;;18.67;56.16;101283.69;5061896;28;46414;-86
2021/08/09 00:47:25;;;;;;;;;0.67;0.67;;;;;18.63;56.11;101285.47;5062763;28;45309;-87
2021/08/09 00:49:51;;;;;;;;;2.33;1.00;;;;;18.65;55.90;101282.81;5062890;28;45329;-87
2021/08/09 00:52:17;;;;;;;;;1.67;1.67;;;;;18.63;56.22;101280.13;5062724;28;45314;-89
2021/08/09 00:54:42;;;;;;;;;0.67;0.67;;;;;18.60;56.42;101269.53;5065958;28;46237;-88
2021/08/09 00:57:08;;;;;;;;;1.33;1.33;;;;;18.56;56.19;101273.09;5072281;28;44712;-88
2021/08/09 00:59:35;;;;;;;;;1.00;1.00;;;;;18.48;56.67;101259.84;5081266;28;45413;-88
2021/08/09 01:02:00;;;;;;;;;1.00;1.00;;;;;18.48;56.43;101270.50;5079747;28;45314;-87
2021/08/09 01:04:26;;;;;;;;;2.00;1.00;;;;;18.48;56.14;101275.84;5080701;28;45179;-85
2021/08/09 01:06:51;;;;;;;;;1.67;1.33;;;;;18.47;56.47;101273.16;5084552;27;44641;-87
2021/08/09 01:09:27;;;;;;;;;3.33;0.33;;;;;18.44;56.57;101267.88;5085116;27;45356;-87
2021/08/09 01:12:02;;;;;;;;;4.33;0.67;;;;;18.42;56.72;101264.34;5084061;28;44756;-86
2021/08/09 01:15:04;;;;;;;;;2.33;1.33;;;;;18.36;56.77;101260.81;5080789;28;45096;-87
2021/08/09 01:17:33;;;;;;;;;0.33;0.33;;;;;18.32;56.82;101259.06;5063352;28;45465;-88
2021/08/09 01:20:22;;;;;;;;;0.67;0.67;;;;;18.32;56.73;101261.72;5062262;28;45326;-88
2021/08/09 01:22:54;;;;;;;;;0.67;0.00;;;;;18.30;56.85;101255.53;5061992;28;45481;-88
2021/08/09 01:25:35;;;;;;;;;0.33;0.33;;;;;18.24;56.98;101239.59;5059394;28;48316;-87
2021/08/09 01:28:02;;;;;;;;;0.67;0.67;;;;;18.19;57.26;101239.63;5060638;28;45362;-87
2021/08/09 01:30:29;;;;;;;;;1.67;0.67;;;;;18.26;57.18;101254.66;5060826;28;45499;-87
2021/08/09 01:32:55;;;;;;;;;1.00;1.00;;;;;18.24;57.15;101256.44;5062035;28;45317;-87
2021/08/09 01:35:24;;;;;;;;;1.00;1.00;;;;;18.22;57.04;101254.69;5061111;28;46608;-89
2021/08/09 01:37:53;;;;;;;;;3.67;1.00;;;;;18.21;57.04;101260.91;5064097;28;45445;-86
2021/08/09 01:40:20;;;;;;;;;2.00;1.00;;;;;18.15;57.31;101252.03;5061877;28;45464;-87
2021/08/09 01:42:48;;;;;;;;;3.33;1.67;;;;;18.12;57.51;101245.84;5060411;28;45342;-88
2021/08/09 01:45:14;;;;;;;;;1.33;0.67;;;;;18.11;57.25;101254.72;5058087;28;47409;-87
2021/08/09 01:47:41;;;;;;;;;1.00;1.00;;;;;18.04;57.57;101254.75;5060141;28;45298;-88
2021/08/09 01:50:08;;;;;;;;;2.67;1.00;;;;;18.02;57.75;101259.19;5059929;28;45322;-86
2021/08/09 01:52:35;;;;;;;;;1.00;1.00;;;;;18.01;57.70;101256.56;5059863;28;45393;-87
2021/08/09 01:55:01;;;;;;;;;1.00;1.00;;;;;18.03;57.85;101257.44;5061909;28;46108;-86
2021/08/09 01:57:27;;;;;;;;;5.00;2.00;;;;;17.97;58.03;101247.72;5059536;28;45331;-88
2021/08/09 01:59:53;;;;;;;;;1.33;1.33;;;;;18.01;57.90;101243.25;5059107;28;45455;-87
2021/08/09 02:02:27;;;;;;;;;1.00;1.00;;;;;18.00;57.95;101247.69;5059300;28;45406;-88
2021/08/09 02:04:52;;;;;;;;;1.00;1.00;;;;;18.01;58.09;101244.16;5058053;28;47624;-87
2021/08/09 02:07:18;;;;;;;;;3.67;1.67;;;;;18.02;57.86;101255.69;5059140;28;45338;-87
2021/08/09 02:09:44;;;;;;;;;1.67;1.67;;;;;18.01;58.13;101245.91;5059240;28;45353;-88
2021/08/09 02:12:09;;;;;;;;;4.00;1.00;;;;;17.97;58.26;101247.72;5059360;28;45421;-87
2021/08/09 02:14:41;;;;;;;;;0.00;0.00;;;;;18.01;58.16;101259.22;5058725;28;46297;-88
2021/08/09 02:17:31;;;;;;;;;1.33;1.33;;;;;17.96;58.37;101255.72;5059166;28;45407;-89
2021/08/09 02:20:10;;;;;;;;;1.00;1.00;;;;;17.94;58.26;101251.25;5060010;28;45512;-88
2021/08/09 02:22:46;;;;;;;;;1.00;1.00;;;;;17.93;58.06;101251.28;5060135;28;45386;-88
2021/08/09 02:25:20;;;;;;;;;2.00;1.00;;;;;17.90;58.14;101256.59;5060087;28;45490;-86
2021/08/09 02:27:49;;;;;;;;;1.00;1.00;;;;;17.77;58.38;101230.06;5059533;28;45417;-87
2021/08/09 02:30:18;;;;;;;;;3.00;1.33;;;;;17.85;58.46;101248.66;5058821;28;45310;-88
2021/08/09 02:32:46;;;;;;;;;3.00;1.00;;;;;17.80;58.36;101239.81;5058859;28;45307;-87
2021/08/09 02:35:17;;;;;;;;;3.00;1.00;;;;;17.80;58.55;101254.00;5058579;28;45321;-87
2021/08/09 02:37:43;;;;;;;;;1.33;1.00;;;;;17.79;58.67;101249.56;5058411;28;45459;-87
2021/08/09 02:40:11;;;;;;;;;1.67;1.00;;;;;17.77;59.03;101247.78;5058718;28;45337;-87
2021/08/09 02:42:36;;;;;;;;;4.00;1.00;;;;;17.75;59.09;101241.59;5058789;28;45334;-86
2021/08/09 02:45:02;;;;;;;;;4.33;1.00;;;;;17.70;58.90;101238.97;5058383;28;45499;-87
2021/08/09 02:47:33;;;;;;;;;3.67;1.67;;;;;17.65;58.62;101238.09;5058207;28;45433;-87
2021/08/09 02:49:59;;;;;;;;;1.33;1.33;;;;;17.68;59.14;101248.72;5058528;28;45359;-86
2021/08/09 02:52:25;;;;;;;;;3.00;2.00;;;;;17.67;59.03;101250.50;5058583;28;45434;-88
2021/08/09 02:54:52;;;;;;;;;3.00;1.00;;;;;17.62;58.87;101246.09;5058419;28;45366;-88
2021/08/09 02:57:20;;;;;;;;;2.00;1.00;;;;;17.67;58.66;101255.81;5058460;28;45184;-88
2021/08/09 02:59:46;;;;;;;;;1.00;1.00;;;;;17.66;58.91;101254.03;5056792;28;45341;-87
2021/08/09 03:02:14;;;;;;;;;1.67;1.33;;;;;17.67;59.18;101250.50;5057198;28;45644;-87
2021/08/09 03:04:41;;;;;;;;;1.00;1.00;;;;;17.68;59.24;101254.91;5057931;28;45374;-88
2021/08/09 03:07:08;;;;;;;;;4.00;1.67;;;;;17.67;58.88;101250.50;5058731;28;45282;-88
2021/08/09 03:09:34;;;;;;;;;3.67;2.00;;;;;17.67;59.17;101260.25;5058266;28;45370;-89
2021/08/09 03:12:00;;;;;;;;;1.00;1.00;;;;;17.63;59.27;101259.38;5057321;28;45995;-88
2021/08/09 03:14:30;;;;;;;;;2.00;1.00;;;;;17.64;59.23;101260.28;5058013;28;45513;-88
2021/08/09 03:16:55;;;;;;;;;2.00;2.00;;;;;17.60;59.06;101246.09;5056908;28;45852;-87
2021/08/09 03:19:21;;;;;;;;;2.00;0.67;;;;;17.57;59.31;101254.97;5058627;28;45358;-87
2021/08/09 03:21:55;;;;;;;;;2.00;1.00;;;;;17.57;59.29;101251.44;5058243;28;45438;-87
2021/08/09 03:24:22;;;;;;;;;3.00;1.00;;;;;17.56;59.21;101252.31;5056762;28;47433;-88
2021/08/09 03:26:49;;;;;;;;;2.00;2.00;;;;;17.59;59.69;101263.84;5058359;28;45391;-87
2021/08/09 03:29:14;;;;;;;;;2.00;2.00;;;;;17.54;59.60;101259.41;5058040;28;45338;-87
2021/08/09 03:31:40;;;;;;;;;2.00;1.33;;;;;17.57;59.67;101270.03;5058189;28;45394;-87
2021/08/09 03:34:06;;;;;;;;;3.00;1.33;;;;;17.51;59.70;101270.06;5057606;28;46399;-86
2021/08/09 03:36:32;;;;;;;;;1.00;1.00;;;;;17.48;60.02;101260.31;5057823;28;45847;-86
2021/08/09 03:38:58;;;;;;;;;4.00;2.67;;;;;17.44;59.73;101259.44;5057620;28;45271;-87
2021/08/09 03:41:23;;;;;;;;;1.00;1.00;;;;;17.37;60.17;101249.69;5058052;28;45463;-87
2021/08/09 03:43:49;;;;;;;;;1.00;1.00;;;;;17.47;60.05;101274.50;5057764;28;46255;-87
2021/08/09 03:46:14;;;;;;;;;5.33;2.00;;;;;17.37;59.96;101257.69;5057399;28;45306;-87
2021/08/09 03:48:40;;;;;;;;;2.00;1.00;;;;;17.39;60.35;101274.50;5057774;28;45401;-87
2021/08/09 03:51:06;;;;;;;;;1.00;1.00;;;;;17.39;60.10;101265.63;5058146;28;45526;-87
2021/08/09 03:53:32;;;;;;;;;2.67;1.00;;;;;17.29;60.13;101249.72;5058526;28;45541;-87
2021/08/09 03:55:57;;;;;;;;;2.00;2.00;;;;;17.35;60.10;101257.69;5064344;28;45229;-87
2021/08/09 03:58:23;;;;;;;;;1.00;1.00;;;;;17.38;60.23;101264.78;5058720;28;45846;-89
2021/08/09 04:00:48;;;;;;;;;3.33;1.00;;;;;17.38;60.10;101262.13;5057804;28;45311;-86
2021/08/09 04:03:13;;;;;;;;;1.33;1.33;;;;;17.37;60.22;101260.34;5056281;28;47351;-88
2021/08/09 04:05:39;;;;;;;;;3.33;2.00;;;;;17.36;60.38;101259.44;5057937;28;45489;-88
2021/08/09 04:08:04;;;;;;;;;2.00;2.00;;;;;17.29;60.68;101251.50;5057678;28;45306;-86
2021/08/09 04:10:30;;;;;;;;;1.00;1.00;;;;;17.31;60.24;101268.31;5058284;28;45268;-87
2021/08/09 04:12:55;;;;;;;;;5.33;2.00;;;;;17.26;60.49;101270.97;5057572;28;45480;-88
2021/08/09 04:15:21;;;;;;;;;1.00;1.00;;;;;17.29;60.11;101281.63;5060434;28;45307;-86
2021/08/09 04:17:46;;;;;;;;;2.00;2.00;;;;;17.26;60.34;101283.41;5058245;28;45336;-87
2021/08/09 04:20:12;;;;;;;;;4.00;2.00;;;;;17.23;60.42;101285.19;5059097;28;45450;-86
2021/08/09 04:22:37;;;;;;;;;4.00;2.00;;;;;17.22;60.94;101294.03;5060384;28;46147;-86
2021/08/09 04:25:03;;;;;;;;;1.67;1.67;;;;;17.22;60.65;101287.81;5060100;28;45287;-86
2021/08/09 04:27:29;;;;;;;;;1.00;1.00;;;;;17.19;60.80;101287.84;5059718;28;45419;-86
2021/08/09 04:29:55;;;;;;;;;2.67;2.67;;;;;17.17;60.82;101301.13;5070275;28;45216;-85
2021/08/09 04:32:20;;;;;;;;;2.00;2.00;;;;;17.20;60.96;101303.75;5079796;28;45248;-87
2021/08/09 04:34:45;;;;;;;;;3.00;2.67;;;;;17.17;60.89;101309.09;5081398;28;44720;-86
2021/08/09 04:37:12;;;;;;;;;2.00;2.00;;;;;17.16;60.70;101317.94;5080838;28;45306;-86
2021/08/09 04:39:37;;;;;;;;;1.00;1.00;;;;;17.17;60.58;101318.84;5080626;28;45373;-86
2021/08/09 04:42:03;;;;;;;;;1.00;1.00;;;;;17.15;61.06;101308.22;5080757;28;45080;-84
2021/08/09 04:44:29;;;;;;;;;2.00;2.00;;;;;17.16;61.09;101317.94;5078862;28;45338;-83
2021/08/09 04:46:56;;;;;;;;;2.33;1.00;;;;;17.17;61.08;101306.44;5081010;28;44725;-85
2021/08/09 04:49:22;;;;;;;;;2.00;1.00;;;;;17.19;60.97;101312.63;5082341;28;45394;-86
2021/08/09 04:51:47;;;;;;;;;1.00;1.00;;;;;17.19;60.92;101315.28;5081765;28;45134;-85
2021/08/09 04:54:13;;;;;;;;;1.33;1.33;;;;;17.19;60.94;101311.75;5070250;28;45260;-87
2021/08/09 04:56:38;;;;;;;;;3.33;2.00;;;;;17.16;61.12;101311.72;5058645;28;45227;-88
2021/08/09 04:59:04;;;;;;;;;5.33;2.00;;;;;17.15;61.11;101309.97;5058885;28;45412;-86
2021/08/09 05:01:29;;;;;;;;;5.00;1.33;;;;;17.18;61.27;101310.84;5057361;28;46337;-86
2021/08/09 05:03:54;;;;;;;;;4.00;2.00;;;;;17.17;61.54;101302.91;5057764;28;45315;-86
2021/08/09 05:06:20;;;;;;;;;1.67;1.67;;;;;17.16;61.29;101311.72;5057962;28;45326;-82
2021/08/09 05:08:45;;;;;;;;;3.33;2.00;;;;;17.15;61.53;101310.88;5056310;28;45405;-81
2021/08/09 05:11:12;;;;;;;;;3.00;1.67;;;;;17.15;61.82;101305.56;5055975;28;46630;-80
2021/08/09 05:13:37;;;;;;;;;1.00;1.00;;;;;17.15;61.83;101310.88;5055871;28;45236;-80
2021/08/09 05:16:04;;;;;;;;;4.00;3.00;;;;;17.17;62.10;101325.03;5055938;28;45487;-80
2021/08/09 05:18:29;;;;;;;;;3.00;2.00;;;;;17.19;61.72;101317.94;5054719;28;45612;-80
2021/08/09 05:20:54;;;;;;;;;1.00;1.00;;;;;17.19;61.69;101320.59;5056562;28;46095;-80
2021/08/09 05:23:20;;;;;;;;;3.00;1.00;;;;;17.19;61.86;101328.56;5059250;28;45303;-79
2021/08/09 05:25:45;;;;;;;;;3.33;3.33;;;;;17.17;62.00;101325.03;5059399;28;45369;-78
2021/08/09 05:28:11;;;;;;;;;1.33;1.33;;;;;17.15;61.72;101318.84;5059654;28;45371;-79
2021/08/09 05:30:36;;;;;;;;;3.00;2.33;;;;;17.12;62.05;101310.81;5058608;28;45956;-79
2021/08/09 05:33:02;;;;;;;;;2.00;2.00;;;;;17.07;62.82;101299.34;5059092;28;45434;-79
2021/08/09 05:35:28;;;;;;;;;2.33;1.00;;;;;17.14;62.40;101306.44;5058736;28;45448;-79
2021/08/09 05:37:54;;;;;;;;;3.00;1.33;;;;;17.17;62.20;101300.25;5059216;28;45330;-80
2021/08/09 05:40:20;;;;;;;;;4.00;2.00;;;;;17.20;62.13;101309.06;5058663;28;46245;-81
2021/08/09 05:42:49;;;;;;;;;4.00;3.00;;;;;17.23;62.67;101309.09;5058415;28;45276;-78
2021/08/09 05:45:15;;;;;;;;;3.33;2.00;;;;;17.26;62.41;101310.84;5058839;28;45300;-79
2021/08/09 05:47:41;;;;;;;;;2.00;2.00;;;;;17.28;62.61;101313.50;5058753;28;45452;-80
2021/08/09 05:50:07;;;;;;;;;5.67;2.00;;;;;17.32;62.29;101318.78;5058188;28;46245;-78
2021/08/09 05:52:32;;;;;;;;;3.00;2.00;;;;;17.35;62.77;101328.53;5058689;28;45467;-79
2021/08/09 05:55:06;;;;;;;;;2.00;2.00;;;;;17.40;62.58;101320.56;5058850;28;45314;-78
2021/08/09 05:57:32;;;;;;;;;3.00;2.00;;;;;17.40;62.40;101321.47;5058866;28;45474;-79
2021/08/09 05:59:57;;;;;;;;;2.00;2.00;;;;;17.41;62.95;101312.59;5058808;28;45523;-78
2021/08/09 06:02:23;;;;;;;;;4.00;3.00;;;;;17.42;62.66;101322.34;5058390;28;45420;-78
2021/08/09 06:04:48;;;;;;;;;2.67;2.67;;;;;17.45;62.38;101326.78;5058200;28;45492;-79
2021/08/09 06:07:15;;;;;;;;;3.33;2.67;;;;;17.46;62.35;101337.41;5058749;28;45374;-77
2021/08/09 06:09:41;;;;;;;;;1.00;1.00;;;;;17.43;62.50;101324.09;5058459;28;46285;-80
2021/08/09 06:12:08;;;;;;;;;4.00;2.33;;;;;17.51;62.39;101341.81;5058606;28;45339;-81
2021/08/09 06:14:34;;;;;;;;;2.33;2.33;;;;;17.52;62.47;101343.56;5058714;28;45497;-86
2021/08/09 06:16:59;;;;;;;;;4.00;3.00;;;;;17.48;62.50;101330.31;5058679;28;45425;-85
2021/08/09 06:19:25;;;;;;;;;4.00;3.00;;;;;17.57;62.35;101337.38;5058475;28;45477;-86
2021/08/09 06:21:50;;;;;;;;;6.67;3.67;;;;;17.61;62.44;101334.69;5058472;28;45458;-86
2021/08/09 06:24:16;;;;;;;;;6.00;3.00;;;;;17.63;62.10;101338.25;5059267;28;45386;-87
2021/08/09 06:26:41;;;;;;;;;4.00;2.67;;;;;17.56;62.41;101326.72;5057703;28;45580;-87
2021/08/09 06:29:07;;;;;;;;;3.00;1.33;;;;;17.69;62.23;101352.41;5058384;28;45997;-85
2021/08/09 06:31:32;;;;;;;;;5.00;2.00;;;;;17.63;62.01;101333.81;5058220;28;45309;-85
2021/08/09 06:33:57;;;;;;;;;5.00;2.00;;;;;17.69;62.29;101352.41;5067089;27;45355;-85
2021/08/09 06:36:23;;;;;;;;;4.67;3.00;;;;;17.67;62.29;101343.56;5059943;28;45307;-87
2021/08/09 06:38:48;;;;;;;;;5.67;2.67;;;;;17.68;62.06;101353.28;5061758;28;45931;-85
2021/08/09 06:41:20;;;;;;;;;4.00;2.00;;;;;17.70;62.26;101356.81;5058188;28;45380;-86
2021/08/09 06:43:46;;;;;;;;;4.67;2.67;;;;;17.69;62.21;101349.75;5058287;28;45391;-86
2021/08/09 06:46:13;;;;;;;;;2.00;1.00;;;;;17.71;62.77;101358.63;5057288;28;45441;-85
2021/08/09 06:48:39;;;;;;;;;2.33;1.67;;;;;17.68;63.02;101352.44;5058365;28;45629;-86
2021/08/09 06:51:04;;;;;;;;;4.00;3.00;;;;;17.77;63.09;101372.75;5057882;28;45177;-85
2021/08/09 06:53:29;;;;;;;;;4.00;3.33;;;;;17.77;62.71;101365.69;5058174;28;45389;-86
2021/08/09 06:55:55;;;;;;;;;2.00;2.00;;;;;17.79;63.57;101374.53;5058503;28;45332;-87
2021/08/09 06:58:20;;;;;;;;;4.67;4.00;;;;;17.81;62.83;101374.53;5058141;28;45437;-86
2021/08/09 07:00:45;;;;;;;;;4.67;2.00;;;;;17.72;63.32;101354.19;5057935;28;45467;-87
2021/08/09 07:03:11;;;;;;;;;4.00;2.00;;;;;17.79;62.93;101368.31;5056744;28;45791;-86
2021/08/09 07:05:44;;;;;;;;;4.67;2.67;;;;;17.78;63.52;101363.91;5057998;28;45287;-86
2021/08/09 07:08:10;;;;;;;;;3.67;1.00;;;;;17.72;63.67;101354.19;5057905;28;46642;-86
2021/08/09 07:10:35;;;;;;;;;1.67;1.67;;;;;17.77;63.84;101362.13;5056355;28;45422;-87
2021/08/09 07:13:01;;;;;;;;;4.00;3.00;;;;;17.80;63.91;101372.78;5057701;28;45279;-84
2021/08/09 07:15:26;;;;;;;;;4.67;3.00;;;;;17.86;63.77;101374.53;5056554;28;45377;-85
2021/08/09 07:17:52;;;;;;;;;5.00;3.33;;;;;17.83;63.70;101368.31;5057788;28;46347;-84
2021/08/09 07:20:18;;;;;;;;;6.00;3.67;;;;;17.86;63.74;101378.06;5056997;28;45326;-84
2021/08/09 07:22:45;;;;;;;;;2.67;2.33;;;;;17.88;63.65;101376.28;5057659;28;45380;-84
2021/08/09 07:25:13;;;;;;;;;3.33;3.33;;;;;17.92;64.07;101377.16;5057847;28;45232;-85
2021/08/09 07:27:39;;;;;;;;;2.00;2.00;;;;;17.91;63.81;101378.97;5055850;28;45461;-85
2021/08/09 07:30:06;;;;;;;;;3.67;3.67;;;;;17.94;64.24;101375.38;5057456;28;45343;-84
2021/08/09 07:32:31;;;;;;;;;2.67;2.67;;;;;17.96;63.88;101378.94;5057492;28;45219;-85
2021/08/09 07:34:57;;;;;;;;;3.00;3.00;;;;;17.93;64.16;101373.63;5058162;28;45260;-85
2021/08/09 07:37:22;;;;;;;;;7.00;4.00;;;;;18.03;64.75;101399.31;5058200;28;46565;-85
2021/08/09 07:39:48;;;;;;;;;3.67;3.00;;;;;18.09;64.77;101392.19;5057679;28;45390;-86
2021/08/09 07:42:13;;;;;;;;;3.33;2.33;;;;;18.15;64.07;101386.84;5058031;28;45375;-85
2021/08/09 07:44:38;;;;;;;;;4.00;3.00;;;;;18.20;64.25;101386.88;5057325;28;45363;-85
2021/08/09 07:47:04;;;;;;;;;7.00;2.33;;;;;18.23;64.20;101393.03;5057085;28;46377;-85
2021/08/09 07:49:29;;;;;;;;;2.67;2.67;;;;;18.26;64.25;101390.38;5057547;28;45438;-85
2021/08/09 07:51:54;;;;;;;;;6.00;3.67;;;;;18.24;63.94;101376.19;5057332;28;45677;-85
2021/08/09 07:54:20;;;;;;;;;3.33;2.00;;;;;18.23;63.70;101384.19;5057685;28;45337;-85
2021/08/09 07:56:47;;;;;;;;;6.00;3.33;;;;;18.20;63.88;101392.19;5058539;28;45969;-84
2021/08/09 07:59:18;;;;;;;;;2.67;1.67;;;;;18.12;63.93;101370.91;5056259;28;45735;-84
2021/08/09 08:01:43;;;;;;;;;8.00;3.67;;;;;18.24;63.51;101383.28;5057435;28;45349;-85
2021/08/09 08:04:09;;;;;;;;;5.67;4.67;;;;;18.21;64.05;101388.66;5057554;28;45403;-85
2021/08/09 08:06:34;;;;;;;;;3.33;2.33;;;;;18.23;63.60;101387.72;5056935;28;45553;-84
2021/08/09 08:08:59;;;;;;;;;5.67;2.67;;;;;18.20;63.72;101376.22;5056929;28;45370;-84
2021/08/09 08:11:25;;;;;;;;;5.00;3.67;;;;;18.24;64.09;101394.84;5057182;28;45318;-84
2021/08/09 08:13:51;;;;;;;;;4.00;3.67;;;;;18.27;63.75;101385.97;5057240;28;45327;-85
2021/08/09 08:16:16;;;;;;;;;3.00;1.00;;;;;18.26;64.20;101389.50;5056764;28;46139;-85
2021/08/09 08:18:41;;;;;;;;;4.00;3.67;;;;;18.24;64.62;101385.97;5057105;28;45355;-85
2021/08/09 08:21:07;;;;;;;;;2.67;2.00;;;;;18.32;64.02;101397.44;5056869;28;45352;-84
2021/08/09 08:23:32;;;;;;;;;3.67;3.67;;;;;18.31;64.32;101381.50;5057422;28;45290;-84
2021/08/09 08:25:58;;;;;;;;;3.00;3.00;;;;;18.34;64.19;101384.16;5056605;28;46970;-84
2021/08/09 08:28:23;;;;;;;;;3.00;2.33;;;;;18.45;63.82;101397.38;5056718;28;45194;-84
2021/08/09 08:30:51;;;;;;;;;8.33;4.00;;;;;18.44;63.63;101388.53;5057200;28;45700;-83
2021/08/09 08:33:17;;;;;;;;;2.67;2.67;;;;;18.51;63.60;101394.69;5057739;28;45638;-87
2021/08/09 08:35:42;;;;;;;;;9.00;4.00;;;;;18.60;63.86;101402.66;5057668;28;46551;-84
2021/08/09 08:38:07;;;;;;;;;4.00;4.00;;;;;18.65;63.45;101399.97;5057076;28;45215;-84
2021/08/09 08:40:34;;;;;;;;;3.00;2.33;;;;;18.76;63.48;101386.59;5068602;28;45607;-82
2021/08/09 08:42:59;;;;;;;;;4.00;3.33;;;;;18.93;63.02;101396.25;5080875;28;45275;-83
2021/08/09 08:45:27;;;;;;;;;2.33;2.33;;;;;19.07;62.86;101398.81;5081120;28;45381;-84
2021/08/09 08:47:54;;;;;;;;;4.33;2.67;;;;;19.25;62.76;101392.47;5077766;28;44770;-85
2021/08/09 08:50:21;;;;;;;;;3.33;2.33;;;;;19.53;62.43;101400.22;5061099;28;45394;-84
2021/08/09 08:52:49;;;;;;;;;5.67;3.00;;;;;19.85;62.43;101389.25;5061125;28;45358;-83
2021/08/09 08:55:18;;;;;;;;;5.00;3.67;;;;;20.19;61.25;101396.91;5059068;28;47592;-85
2021/08/09 08:57:45;;;;;;;;;4.00;2.00;;;;;20.50;61.10;101403.59;5060074;28;45441;-83
2021/08/09 09:00:13;;;;;;;;;4.67;3.00;;;;;20.86;60.09;101397.75;5058544;28;45288;-84
2021/08/09 09:02:39;;;;;;;;;3.00;2.00;;;;;21.17;59.56;101407.13;5059231;28;45592;-84
2021/08/09 09:05:19;;;;;;;;;2.67;2.67;;;;;21.39;58.05;101410.31;5059786;28;46298;-83
2021/08/09 09:07:50;;;;;;;;;4.00;3.00;;;;;21.64;58.50;101420.56;5058239;28;45304;-84
2021/08/09 09:10:28;;;;;;;;;6.33;3.00;;;;;21.88;57.58;101417.50;5060220;28;45365;-84
2021/08/09 09:13:11;;;;;;;;;5.67;2.33;;;;;22.24;56.56;101423.94;5060361;28;45341;-84
2021/08/09 09:15:56;;;;;;;;;4.67;3.00;;;;;22.56;56.78;101425.94;5059939;28;45353;-85
2021/08/09 09:18:23;;;;;;;;;4.00;2.33;;;;;22.69;56.03;101425.72;5061849;28;45444;-85
2021/08/09 09:20:48;;;;;;;;;3.00;3.00;;;;;22.82;55.24;101436.16;5060285;28;45356;-84
2021/08/09 09:23:17;;;;;;;;;3.33;3.00;;;;;22.83;55.42;101436.09;5061299;28;45568;-84
2021/08/09 09:25:44;;;;;;;;;2.67;2.67;;;;;22.85;55.19;101428.91;5059737;28;46291;-83
2021/08/09 09:28:29;;;;;;;;;3.33;3.00;;;;;22.96;54.62;101435.81;5059492;28;45299;-84
2021/08/09 09:31:01;;;;;;;;;5.00;2.00;;;;;22.94;53.46;101441.22;5059412;28;45487;-85
2021/08/09 09:33:28;;;;;;;;;3.33;2.33;;;;;22.85;53.68;101436.06;5059491;28;45685;-85
2021/08/09 09:35:54;;;;;;;;;5.67;2.33;;;;;22.75;53.05;101438.06;5058725;28;47694;-84
2021/08/09 09:38:19;;;;;;;;;2.00;2.00;;;;;22.67;53.25;101439.13;5059190;28;45339;-85
2021/08/09 09:40:45;;;;;;;;;3.00;3.00;;;;;22.51;53.19;101437.66;5066375;28;45358;-84
2021/08/09 09:43:21;;;;;;;;;5.00;2.00;;;;;22.47;53.86;101441.31;5066722;28;45463;-85
2021/08/09 09:45:53;;;;;;;;;6.00;2.67;;;;;22.44;54.32;101461.03;5061756;28;45495;-84
2021/08/09 09:48:31;;;;;;;;;3.33;2.00;;;;;22.31;53.97;101442.56;5061372;28;45364;-84
2021/08/09 09:51:08;;;;;;;;;3.33;2.00;;;;;22.27;54.17;101472.97;5060174;28;45420;-84
2021/08/09 09:53:34;;;;;;;;;2.00;2.00;;;;;22.13;53.51;101449.13;5059888;28;45247;-84
2021/08/09 09:56:00;;;;;;;;;2.33;2.33;;;;;22.08;54.24;101459.94;5060707;28;47154;-85
2021/08/09 09:58:25;;;;;;;;;3.67;3.00;;;;;21.96;54.12;101449.47;5063241;28;45378;-84
2021/08/09 10:00:52;;;;;;;;;2.00;2.00;;;;;21.92;53.45;101461.16;5064718;28;45327;-84
2021/08/09 10:03:17;;;;;;;;;3.67;2.33;;;;;21.85;54.34;101461.25;5067018;28;45336;-84
2021/08/09 10:05:43;;;;;;;;;5.00;3.33;;;;;21.84;54.11;101450.59;5065445;28;46412;-84
2021/08/09 10:08:16;;;;;;;;;3.00;3.00;;;;;21.83;54.37;101462.16;5063303;28;45330;-85
2021/08/09 10:10:52;;;;;;;;;2.33;2.33;;;;;21.89;54.68;101455.88;5075445;28;45314;-84
2021/08/09 10:13:22;;;;;;;;;3.33;2.00;;;;;21.93;54.37;101455.78;5081577;28;44888;-86
2021/08/09 10:15:52;;;;;;;;;4.00;2.67;;;;;21.98;54.28;101459.25;5081405;28;45585;-84
2021/08/09 10:18:29;;;;;;;;;4.00;2.00;;;;;22.04;53.92;101460.91;5080356;28;44692;-85
2021/08/09 10:20:56;;;;;;;;;3.33;2.00;;;;;22.09;54.13;101461.72;5076926;28;44707;-84
2021/08/09 10:23:36;;;;;;;;;4.00;3.67;;;;;22.14;54.04;101453.59;5081252;28;45274;-84
2021/08/09 10:26:03;;;;;;;;;3.67;3.00;;;;;22.16;53.92;101448.22;5078220;28;47316;-83
2021/08/09 10:28:53;;;;;;;;;3.00;3.00;;;;;22.48;54.50;101446.66;5080085;28;45615;-84
2021/08/09 10:31:31;;;;;;;;;5.33;3.00;;;;;22.81;54.57;101445.97;5081602;28;44800;-85
2021/08/09 10:33:58;;;;;;;;;1.67;1.67;;;;;23.19;53.41;101431.69;5082119;28;45307;-83
2021/08/09 10:36:25;;;;;;;;;2.00;2.00;;;;;23.60;51.91;101439.66;5082904;28;46506;-82
2021/08/09 10:39:00;;;;;;;;;4.33;2.00;;;;;23.91;52.34;101438.81;5076789;28;45394;-84
2021/08/09 10:41:27;;;;;;;;;3.00;2.00;;;;;24.13;51.69;101438.22;5066105;28;45245;-83
2021/08/09 10:44:04;;;;;;;;;3.67;2.00;;;;;24.42;51.60;101437.41;5077104;28;44857;-84
2021/08/09 10:46:40;;;;;;;;;3.00;2.00;;;;;24.49;50.52;101428.25;5079104;28;45455;-84
2021/08/09 10:49:08;;;;;;;;;3.33;3.00;;;;;24.60;50.41;101430.63;5079863;28;44714;-84
2021/08/09 10:51:57;;;;;;;;;1.00;1.00;;;;;24.67;50.04;101436.66;5081320;28;45547;-84
2021/08/09 10:54:29;;;;;;;;;2.00;1.00;;;;;24.71;48.89;101449.09;5039142;28;44859;-85
2021/08/09 10:56:56;;;;;;;;;2.33;2.00;;;;;24.76;49.38;101444.47;5030655;28;46375;-84
2021/08/09 10:59:47;;;;;;;;;3.00;2.00;;;;;24.58;48.54;101441.41;5018956;28;45490;-85
2021/08/09 11:02:18;;;;;;;;;1.33;1.33;;;;;24.40;48.11;101440.16;4959038;28;45398;-84
2021/08/09 11:04:44;;;;;;;;;3.33;2.00;;;;;24.36;48.72;101439.38;4957815;28;45379;-84
2021/08/09 11:07:19;;;;;;;;;2.00;2.00;;;;;24.40;48.96;101440.16;4958141;28;46388;-85
2021/08/09 11:09:47;;;;;;;;;1.00;1.00;;;;;24.58;49.07;101438.72;4958095;28;45422;-84
2021/08/09 11:12:13;;;;;;;;;3.33;2.00;;;;;24.83;47.09;101443.31;4956769;28;45433;-82
2021/08/09 11:15:10;;;;;;;;;2.00;2.00;;;;;24.89;48.29;101434.19;4957284;28;45342;-84
2021/08/09 11:17:41;;;;;;;;;4.33;2.00;;;;;25.00;47.68;101436.59;4950053;28;47171;-83
2021/08/09 11:20:12;;;;;;;;;2.00;2.00;;;;;25.16;47.86;101422.63;4961757;28;45504;-83
2021/08/09 11:22:42;;;;;;;;;1.67;1.67;;;;;25.26;46.83;101428.56;4961335;28;45512;-85
2021/08/09 11:25:29;;;;;;;;;2.00;2.00;;;;;25.19;47.01;101425.22;4958059;28;45453;-85
2021/08/09 11:28:00;;;;;;;;;1.67;1.00;;;;;25.28;47.27;101430.28;4957625;28;46360;-85